Portada
METAR-TAF:

METAR-TAF

Aeropuertos :

Gillespie Field

San Diego / El Cajon, California, Estados Unidos

latitud: 32-50N, longitud: 116-58W, altitud: 117 m

Observación

El informe se hizo hace 18 minutos, a las 07:35 UTC
Viento calma
Temperatura 12°C
Humedad 88%
Presión 1014 hPa
Visibilidad: 16.1 km
Cielo cubierto a una altura de 1500 ft

METAR: KSEE 040735Z AUTO 00000KT 10SM OVC015 12/10 A2993 RMK AO2

Hora: 00:53 (07:53 UTC)


TAF: falta

Observaciones y pronósticos meteorológicos de más de 4000 aeropuertos (mensajes METAR y TAF).

Los puntos amarillos y rojos representan las estaciones disponibles.

Ponga el ratón en el punto deseado para ver el nombre de la estación.

Haga clic para ver las observaciones y los pronósticos meteorológicos.

Para cambiar el mapa : haga clic en los botones verdes con una cruz de color negro para hacer un zoom, en el botón verde con un guión para alejar o en las flechas verdes para mapas adyacentes.


METAR-TAF: